Time;durP1;ratioP1;P1;durP2;ratioP2;P2;SDS_P1;SDS_P2;PMS_P1;PMS_P2;Temp;Humidity;BMP_temperature;BMP_pressure;BME280_temperature;BME280_humidity;BME280_pressure;Samples;Min_cycle;Max_cycle;Signal;HPM_P1;HPM_P2
2023/11/29 00:00:16;;;;;;;;;;;;;;;5.30;100.00;98849.69;6250759;22;19919;-90
2023/11/29 00:02:41;;;;;;;;;;;;;;;5.30;100.00;98841.81;6278223;22;19945;-90
2023/11/29 00:05:07;;;;;;;;;;;;;;;5.32;100.00;98847.84;6250996;22;19940;-90
2023/11/29 00:07:33;;;;;;;;;;;;;;;5.32;100.00;98845.22;6250571;22;19918;-90
2023/11/29 00:10:00;;;;;;;;;;;;;;;5.33;100.00;98848.69;6249273;22;20242;-88
2023/11/29 00:12:29;;;;;;;;;;;;;;;5.33;100.00;98854.81;6277889;22;19915;-88
2023/11/29 00:14:54;;;;;;;;;;;;;;;5.33;100.00;98848.69;6251014;22;20304;-88
2023/11/29 00:17:19;;;;;;;;;;;;;;;5.34;100.00;98845.16;6250730;22;19915;-90
2023/11/29 06:13:46;;;;;;;;;;;;;;;5.66;100.00;98588.19;6206796;23;19966;-83
2023/11/29 06:16:13;;;;;;;;;;;;;;;5.67;100.00;98580.22;6188956;23;19924;-81
2023/11/29 06:18:38;;;;;;;;;;;;;;;5.69;100.00;98581.00;6215520;23;20046;-84
2023/11/29 06:21:04;;;;;;;;;;;;;;;5.72;100.00;98582.66;6189271;23;19963;-84
2023/11/29 06:23:29;;;;;;;;;;;;;;;5.72;100.00;98582.66;6215517;23;19958;-80
2023/11/29 06:25:55;;;;;;;;;;;;;;;5.70;100.00;98584.50;6188810;23;19935;-81
2023/11/29 06:28:20;;;;;;;;;;;;;;;5.71;100.00;98589.72;6187162;23;19966;-81
2023/11/29 06:30:46;;;;;;;;;;;;;;;5.72;100.00;98582.66;6215359;23;19915;-80
2023/11/29 06:33:11;;;;;;;;;;;;;;;5.72;100.00;98572.16;6188872;23;19922;-81
2023/11/29 06:35:36;;;;;;;;;;;;;;;5.73;100.00;98582.59;6215360;23;19916;-80
2023/11/29 06:38:02;;;;;;;;;;;;;;;5.72;100.00;98582.66;6188688;23;19912;-81
2023/11/29 06:40:27;;;;;;;;;;;;;;;5.74;100.00;98578.19;6184339;23;19927;-79
2023/11/29 06:42:53;;;;;;;;;;;;;;;5.75;100.00;98575.50;6213772;23;19912;-80
2023/11/29 06:45:19;;;;;;;;;;;;;;;5.79;100.00;98576.22;6215218;23;19911;-80
2023/11/29 06:47:48;;;;;;;;;;;;;;;5.77;100.00;98578.06;6215098;23;19954;-80
2023/11/29 06:50:13;;;;;;;;;;;;;;;5.79;100.00;98565.69;6215105;23;19944;-83
2023/11/29 06:52:42;;;;;;;;;;;;;;;5.81;100.00;98577.03;6188833;23;19911;-82
2023/11/29 06:55:08;;;;;;;;;;;;;;;5.81;100.00;98579.66;6188585;23;19950;-82
2023/11/29 06:57:33;;;;;;;;;;;;;;;5.86;100.00;98571.56;6213663;23;19912;-81
2023/11/29 06:59:58;;;;;;;;;;;;;;;5.85;100.00;98568.06;6188502;23;19923;-81
2023/11/29 07:02:23;;;;;;;;;;;;;;;5.83;100.00;98569.91;6215325;23;19912;-82
2023/11/29 07:04:49;;;;;;;;;;;;;;;5.86;100.00;98564.53;6188213;23;19916;-82
2023/11/29 07:07:15;;;;;;;;;;;;;;;5.85;100.00;98567.22;6184111;23;19912;-81
2023/11/29 07:09:40;;;;;;;;;;;;;;;5.87;100.00;98571.50;6188390;23;19923;-81
2023/11/29 07:12:06;;;;;;;;;;;;;;;5.91;100.00;98575.69;6186908;23;19986;-81
2023/11/29 07:14:31;;;;;;;;;;;;;;;5.89;100.00;98568.78;6214845;23;19920;-82
2023/11/29 07:16:56;;;;;;;;;;;;;;;5.88;100.00;98567.94;6188366;23;20243;-77
2023/11/29 07:19:22;;;;;;;;;;;;;;;5.88;100.00;98594.22;6215205;23;19912;-84
2023/11/29 07:21:47;;;;;;;;;;;;;;;5.88;100.00;98596.88;6188376;23;20283;-83
2023/11/29 07:24:13;;;;;;;;;;;;;;;5.86;100.00;98596.09;6214961;23;20027;-82
2023/11/29 07:26:38;;;;;;;;;;;;;;;5.85;100.00;98604.88;6213282;23;20343;-82
2023/11/29 07:29:04;;;;;;;;;;;;;;;5.86;100.00;98595.25;6214893;23;20284;-80
2023/11/29 07:31:29;;;;;;;;;;;;;;;5.85;100.00;98602.25;6214593;23;19998;-81
2023/11/29 07:33:56;;;;;;;;;;;;;;;5.85;100.00;98609.28;6214852;23;19948;-84
2023/11/29 07:36:22;;;;;;;;;;;;;;;5.83;100.00;98610.19;6214662;23;19920;-81
2023/11/29 07:38:47;;;;;;;;;;;;;;;5.87;100.00;98613.56;6214848;23;19919;-80
2023/11/29 07:41:12;;;;;;;;;;;;;;;5.88;100.00;98610.00;6187275;23;19986;-85
2023/11/29 07:43:37;;;;;;;;;;;;;;;5.89;100.00;98613.47;6214371;23;19912;-82
2023/11/29 07:46:03;;;;;;;;;;;;;;;5.91;100.00;98604.63;6188229;23;19973;-83
2023/11/29 07:48:29;;;;;;;;;;;;;;;5.91;100.00;98609.88;6214770;23;19955;-85
2023/11/29 07:50:56;;;;;;;;;;;;;;;5.92;100.00;98610.72;6214679;23;20263;-90
2023/11/29 07:53:21;;;;;;;;;;;;;;;5.91;100.00;98604.63;6214784;23;20328;-80
2023/11/29 07:55:47;;;;;;;;;;;;;;;5.90;100.00;98608.16;6215178;23;19986;-80
2023/11/29 07:58:13;;;;;;;;;;;;;;;5.90;100.00;98596.78;6213118;23;20280;-84
2023/11/29 08:00:38;;;;;;;;;;;;;;;5.90;100.00;98596.78;6214985;23;19943;-81
2023/11/29 09:01:44;;;;;;;;;;;;;;;6.13;100.00;98598.47;6250354;22;20024;-81
2023/11/29 09:04:13;;;;;;;;;;;;;;;8.95;100.00;98589.06;6273085;22;20234;-84
2023/11/29 09:06:38;;;;;;;;;;;;;;;6.72;100.00;98592.31;6276179;22;19921;-83
2023/11/29 09:09:03;;;;;;;;;;;;;;;4.99;100.00;98603.13;6250368;22;19911;-85
2023/11/29 09:11:28;;;;;;;;;;;;;;;4.30;100.00;98607.41;6249786;22;19961;-83
2023/11/29 09:13:54;;;;;;;;;;;;;;;3.86;100.00;98606.34;6276857;22;20227;-81
2023/11/29 09:16:19;;;;;;;;;;;;;;;3.73;100.00;98598.06;6275329;22;19941;-80
2023/11/29 09:18:44;;;;;;;;;;;;;;;3.67;100.00;98603.50;6277088;22;19911;-81
2023/11/29 09:21:10;;;;;;;;;;;;;;;3.53;100.00;98611.84;6276961;22;19990;-83
2023/11/29 09:23:35;;;;;;;;;;;;;;;7.63;100.00;98605.56;6249847;22;19911;-87
2023/11/29 09:26:01;;;;;;;;;;;;;;;8.06;100.00;98598.13;6277026;22;19915;-81
2023/11/29 09:28:26;;;;;;;;;;;;;;;6.18;100.00;98607.88;6276524;22;19915;-81
2023/11/29 09:30:53;;;;;;;;;;;;;;;4.28;100.00;98617.09;6275533;22;19942;-85
2023/11/29 09:33:18;;;;;;;;;;;;;;;3.84;100.00;98624.75;6276910;22;19911;-82
2023/11/29 09:35:44;;;;;;;;;;;;;;;3.62;100.00;98622.88;6276991;22;20323;-81
2023/11/29 09:38:10;;;;;;;;;;;;;;;3.45;100.00;98615.53;6276510;22;19934;-82
2023/11/29 09:40:35;;;;;;;;;;;;;;;3.23;100.00;98620.63;6276867;22;19922;-82
2023/11/29 09:43:01;;;;;;;;;;;;;;;3.15;100.00;98627.84;6278404;22;19915;-81
2023/11/29 09:45:26;;;;;;;;;;;;;;;3.09;100.00;98622.81;6275213;22;19911;-82
2023/11/29 09:47:53;;;;;;;;;;;;;;;3.02;100.00;98622.16;6277208;22;19946;-81
2023/11/29 09:50:18;;;;;;;;;;;;;;;2.94;100.00;98616.28;6276424;22;19915;-82
2023/11/29 09:52:43;;;;;;;;;;;;;;;2.93;100.00;98619.81;6276673;22;19918;-83
2023/11/29 09:55:09;;;;;;;;;;;;;;;2.93;100.00;98616.34;6277206;22;19959;-80
2023/11/29 09:57:34;;;;;;;;;;;;;;;2.95;100.00;98612.75;6276621;22;19923;-81
2023/11/29 10:00:01;;;;;;;;;;;;;;;3.12;100.00;98601.78;6276847;22;20463;-80
2023/11/29 10:02:27;;;;;;;;;;;;;;;3.23;100.00;98602.28;6274916;22;19923;-81
2023/11/29 10:04:53;;;;;;;;;;;;;;;3.22;100.00;98604.94;6276947;22;19922;-80
2023/11/29 10:07:18;;;;;;;;;;;;;;;3.11;100.00;98602.66;6276664;22;19993;-83
2023/11/29 10:09:43;;;;;;;;;;;;;;;3.11;100.00;98594.81;6276451;22;19918;-81
2023/11/29 10:12:08;;;;;;;;;;;;;;;4.06;100.00;98596.03;6276417;22;19985;-81
2023/11/29 10:14:42;;;;;;;;;;;;;;;5.21;100.00;98596.09;6276601;22;19912;-83
2023/11/29 10:17:13;;;;;;;;;;;;;;;7.57;100.00;98596.16;6274705;22;19957;-82
2023/11/29 10:19:39;;;;;;;;;;;;;;;8.00;100.00;98583.47;6276342;22;19915;-80
2023/11/29 10:22:04;;;;;;;;;;;;;;;8.00;100.00;98586.09;6276865;22;19911;-81
2023/11/29 10:24:30;;;;;;;;;;;;;;;8.07;100.00;98576.06;6249215;22;19912;-85
2023/11/29 10:26:56;;;;;;;;;;;;;;;7.86;100.00;98570.13;6249319;22;19942;-84
2023/11/29 10:29:21;;;;;;;;;;;;;;;7.97;100.00;98564.31;6249536;22;20330;-84
2023/11/29 10:31:47;;;;;;;;;;;;;;;6.40;100.00;98569.22;6247651;22;19911;-83
2023/11/29 10:34:14;;;;;;;;;;;;;;;5.25;100.00;98579.31;6276640;22;19911;-84
2023/11/29 10:36:40;;;;;;;;;;;;;;;4.70;100.00;98581.47;6249235;22;19911;-85
2023/11/29 10:39:11;;;;;;;;;;;;;;;4.35;100.00;98583.63;6275907;22;19965;-83
2023/11/29 10:41:47;;;;;;;;;;;;;;;4.20;100.00;98582.44;6249574;22;19911;-95
2023/11/29 10:44:13;;;;;;;;;;;;;;;4.07;100.00;98579.41;6276619;22;20010;-86
2023/11/29 10:46:39;;;;;;;;;;;;;;;4.01;100.00;98577.00;6274671;22;19911;-84
2023/11/29 10:49:04;;;;;;;;;;;;;;;4.08;100.00;98581.09;6249058;22;19911;-84
2023/11/29 10:51:31;;;;;;;;;;;;;;;4.12;100.00;98577.47;6248959;22;19911;-85
2023/11/29 10:53:58;;;;;;;;;;;;;;;4.04;100.00;98574.28;6248973;22;19917;-85
2023/11/29 10:56:24;;;;;;;;;;;;;;;3.99;100.00;98574.44;6276610;22;19925;-85
2023/11/29 10:59:02;;;;;;;;;;;;;;;4.03;100.00;98574.31;6249060;22;19911;-86
2023/11/29 11:01:32;;;;;;;;;;;;;;;3.93;100.00;98576.41;6249010;22;19953;-84
2023/11/29 11:03:59;;;;;;;;;;;;;;;3.98;100.00;98574.47;6222276;23;19970;-85
2023/11/29 11:06:26;;;;;;;;;;;;;;;3.93;100.00;98573.78;6219011;23;19994;-85
2023/11/29 11:08:52;;;;;;;;;;;;;;;3.83;100.00;98573.28;6245781;23;19934;-85
2023/11/29 11:11:36;;;;;;;;;;;;;;;3.79;100.00;98577.72;6218364;23;20319;-85
2023/11/29 11:14:03;;;;;;;;;;;;;;;3.85;100.00;98570.59;6245299;23;19919;-89
2023/11/29 11:16:28;;;;;;;;;;;;;;;3.86;100.00;98564.41;6217155;23;19952;-84
2023/11/29 11:18:57;;;;;;;;;;;;;;;3.83;100.00;98575.88;6245231;23;19915;-84
2023/11/29 11:21:29;;;;;;;;;;;;;;;3.86;100.00;98561.81;6218588;23;20316;-85
2023/11/29 11:23:54;;;;;;;;;;;;;;;3.86;100.00;98572.28;6245649;23;19919;-85
2023/11/29 11:26:19;;;;;;;;;;;;;;;3.64;100.00;98571.25;6245187;23;20312;-85
2023/11/29 11:28:44;;;;;;;;;;;;;;;3.80;100.00;98573.38;6218488;23;20289;-84
2023/11/29 11:31:12;;;;;;;;;;;;;;;3.79;100.00;98575.13;6243816;23;19919;-84
2023/11/29 11:33:52;;;;;;;;;;;;;;;3.82;100.00;98568.91;6244781;23;19966;-85
2023/11/29 11:36:19;;;;;;;;;;;;;;;3.75;100.00;98565.66;6218065;23;19911;-84
2023/11/29 11:38:44;;;;;;;;;;;;;;;3.79;100.00;98564.63;6217995;23;19915;-85
2023/11/29 11:41:10;;;;;;;;;;;;;;;3.72;100.00;98560.53;6218040;23;19918;-86
2023/11/29 11:43:35;;;;;;;;;;;;;;;3.72;100.00;98560.53;6245320;23;19918;-82
2023/11/29 11:46:00;;;;;;;;;;;;;;;3.54;100.00;98554.16;6244259;23;19915;-84
2023/11/29 11:48:26;;;;;;;;;;;;;;;3.62;100.00;98548.63;6245026;23;19962;-83
2023/11/29 11:50:53;;;;;;;;;;;;;;;3.50;100.00;98555.16;6246000;23;19915;-87
2023/11/29 11:53:18;;;;;;;;;;;;;;;3.77;100.00;98536.78;6247123;23;19994;-85
2023/11/29 11:55:47;;;;;;;;;;;;;;;3.60;100.00;98543.44;6247508;23;19958;-83
2023/11/29 11:58:15;;;;;;;;;;;;;;;3.64;100.00;98537.22;6247510;23;20323;-85
2023/11/29 12:00:40;;;;;;;;;;;;;;;3.58;100.00;98547.91;6245446;23;20322;-85
2023/11/29 12:03:09;;;;;;;;;;;;;;;3.63;100.00;98545.13;6262954;22;19915;-86
2023/11/29 12:05:37;;;;;;;;;;;;;;;3.64;100.00;98546.84;6251050;22;19918;-89
2023/11/29 12:08:02;;;;;;;;;;;;;;;3.67;100.00;98541.50;6277774;22;19961;-84
2023/11/29 12:10:27;;;;;;;;;;;;;;;3.60;100.00;98539.97;6278113;22;19919;-87
2023/11/29 12:12:53;;;;;;;;;;;;;;;3.62;100.00;98538.16;6250490;22;20045;-85
2023/11/29 12:15:19;;;;;;;;;;;;;;;3.57;100.00;98545.31;6277534;22;19970;-85
2023/11/29 12:17:44;;;;;;;;;;;;;;;3.63;100.00;98537.25;6276358;22;19917;-84
2023/11/29 12:20:11;;;;;;;;;;;;;;;3.70;100.00;98538.78;6277523;22;19915;-85
2023/11/29 12:22:47;;;;;;;;;;;;;;;3.65;100.00;98538.06;6250361;22;19919;-86
2023/11/29 12:25:14;;;;;;;;;;;;;;;3.62;100.00;98539.03;6277831;22;19926;-85
2023/11/29 12:27:42;;;;;;;;;;;;;;;3.56;100.00;98536.63;6250191;22;19915;-87
2023/11/29 12:30:08;;;;;;;;;;;;;;;3.63;100.00;98538.09;6277637;22;19912;-86
2023/11/29 12:32:34;;;;;;;;;;;;;;;3.56;100.00;98535.78;6276106;22;19911;-85
2023/11/29 12:34:59;;;;;;;;;;;;;;;3.64;100.00;98524.13;6250375;22;20005;-86
2023/11/29 12:37:26;;;;;;;;;;;;;;;3.64;100.00;98523.25;6250128;22;19914;-86
2023/11/29 12:39:52;;;;;;;;;;;;;;;3.60;100.00;98519.03;6277537;22;19919;-85
2023/11/29 12:42:17;;;;;;;;;;;;;;;3.63;100.00;98524.16;6250598;22;20227;-85
2023/11/29 12:44:42;;;;;;;;;;;;;;;3.67;100.00;98522.28;6277163;22;19947;-84
2023/11/29 12:47:08;;;;;;;;;;;;;;;3.66;100.00;98512.72;6275628;22;19911;-84
2023/11/29 12:49:36;;;;;;;;;;;;;;;3.58;100.00;98511.22;6251364;22;19914;-91
2023/11/29 12:52:01;;;;;;;;;;;;;;;3.67;100.00;98510.06;6277023;22;19919;-84
2023/11/29 12:54:27;;;;;;;;;;;;;;;3.58;100.00;98511.22;6277507;22;20239;-83
2023/11/29 12:56:53;;;;;;;;;;;;;;;3.56;100.00;98506.97;6277365;22;19911;-84
2023/11/29 12:59:18;;;;;;;;;;;;;;;3.62;100.00;98501.47;6276957;22;19911;-84
2023/11/29 13:01:43;;;;;;;;;;;;;;;3.64;100.00;98502.31;6275072;22;19994;-83
2023/11/29 13:04:10;;;;;;;;;;;;;;;3.72;100.00;98502.88;6276833;22;20350;-83
2023/11/29 13:06:35;;;;;;;;;;;;;;;3.66;100.00;98508.34;6250254;22;19922;-85
2023/11/29 13:09:01;;;;;;;;;;;;;;;3.58;100.00;98505.13;6250185;22;19920;-83
2023/11/29 13:11:26;;;;;;;;;;;;;;;3.62;100.00;98501.47;6277044;22;19946;-84
2023/11/29 13:13:52;;;;;;;;;;;;;;;3.59;100.00;98497.22;6276979;22;19915;-82
2023/11/29 13:16:17;;;;;;;;;;;;;;;3.62;100.00;98498.88;6275758;22;19907;-84
2023/11/29 13:18:43;;;;;;;;;;;;;;;3.62;100.00;98506.72;6276956;22;19915;-82
2023/11/29 13:21:08;;;;;;;;;;;;;;;3.66;100.00;98492.63;6277062;22;19908;-83
2023/11/29 13:23:34;;;;;;;;;;;;;;;3.67;100.00;98494.34;6249871;22;20353;-89
2023/11/29 13:25:59;;;;;;;;;;;;;;;3.67;100.00;98489.09;6277166;22;19922;-86
2023/11/29 13:28:27;;;;;;;;;;;;;;;3.63;100.00;98483.09;6276816;22;20381;-84
2023/11/29 13:30:53;;;;;;;;;;;;;;;3.66;100.00;98487.38;6275337;22;19938;-84
2023/11/29 13:33:18;;;;;;;;;;;;;;;3.73;100.00;98477.53;6249707;22;20338;-82
2023/11/29 13:35:44;;;;;;;;;;;;;;;3.69;100.00;98468.94;6276787;22;19912;-84
2023/11/29 13:38:09;;;;;;;;;;;;;;;3.74;100.00;98469.63;6276801;22;20323;-88
2023/11/29 13:40:34;;;;;;;;;;;;;;;3.73;100.00;98465.28;6249842;22;19916;-85
2023/11/29 13:43:00;;;;;;;;;;;;;;;3.66;100.00;98458.56;6276636;22;19915;-86
2023/11/29 13:45:25;;;;;;;;;;;;;;;3.69;100.00;98461.06;6275985;22;19998;-85
2023/11/29 13:47:50;;;;;;;;;;;;;;;3.71;100.00;98468.88;6276379;22;19921;-85
2023/11/29 13:50:16;;;;;;;;;;;;;;;3.62;100.00;98470.06;6249943;22;20365;-84
2023/11/29 13:52:41;;;;;;;;;;;;;;;3.69;100.00;98463.69;6276729;22;19915;-85
2023/11/29 13:55:07;;;;;;;;;;;;;;;3.69;100.00;98460.22;6277209;22;19923;-88
2023/11/29 13:57:32;;;;;;;;;;;;;;;3.56;100.00;98460.66;6249777;22;20389;-83
2023/11/29 13:59:57;;;;;;;;;;;;;;;3.64;100.00;98471.72;6276521;22;19922;-85
2023/11/29 14:02:23;;;;;;;;;;;;;;;3.67;100.00;98462.91;6274862;22;19922;-83
2023/11/29 14:04:48;;;;;;;;;;;;;;;3.68;100.00;98461.97;6276916;22;19912;-83
2023/11/29 14:07:13;;;;;;;;;;;;;;;3.69;100.00;98450.59;6276518;22;19907;-83
2023/11/29 14:09:39;;;;;;;;;;;;;;;3.71;100.00;98442.69;6276494;22;19915;-82
2023/11/29 14:12:04;;;;;;;;;;;;;;;3.69;100.00;98453.22;6276366;22;19915;-85
2023/11/29 14:14:30;;;;;;;;;;;;;;;3.64;100.00;98450.75;6249285;22;19939;-82
2023/11/29 14:16:55;;;;;;;;;;;;;;;3.73;100.00;98457.41;6274846;22;19911;-84
2023/11/29 14:19:21;;;;;;;;;;;;;;;3.69;100.00;98457.63;6276373;22;19943;-85
2023/11/29 14:21:46;;;;;;;;;;;;;;;3.71;100.00;98451.38;6249581;22;19918;-84
2023/11/29 14:24:11;;;;;;;;;;;;;;;3.72;100.00;98447.88;6276652;22;20243;-89
2023/11/29 14:26:36;;;;;;;;;;;;;;;3.72;100.00;98455.72;6249242;22;19916;-82
2023/11/29 14:29:05;;;;;;;;;;;;;;;3.76;100.00;98457.31;6224101;22;19923;-94
2023/11/29 14:31:30;;;;;;;;;;;;;;;3.69;100.00;98460.22;6274756;22;19964;-84
2023/11/29 14:33:56;;;;;;;;;;;;;;;3.71;100.00;98461.88;6276285;22;19942;-85
2023/11/29 14:36:22;;;;;;;;;;;;;;;3.68;100.00;98458.50;6276216;22;20285;-85
2023/11/29 14:38:47;;;;;;;;;;;;;;;3.75;100.00;98450.38;6276853;22;19911;-86
2023/11/29 14:41:13;;;;;;;;;;;;;;;3.71;100.00;98453.16;6249194;22;19915;-84
2023/11/29 14:43:38;;;;;;;;;;;;;;;3.69;100.00;98453.22;6249492;22;19911;-84
2023/11/29 14:46:03;;;;;;;;;;;;;;;3.67;100.00;98454.16;6247577;22;19911;-82
2023/11/29 14:48:29;;;;;;;;;;;;;;;3.62;100.00;98452.59;6276206;22;19915;-86
2023/11/29 14:50:56;;;;;;;;;;;;;;;3.66;100.00;98448.09;6276116;22;19962;-84
2023/11/29 14:53:21;;;;;;;;;;;;;;;3.73;100.00;98456.56;6276013;22;19926;-86
2023/11/29 14:55:46;;;;;;;;;;;;;;;3.66;100.00;98460.34;6276153;22;19939;-85
2023/11/29 14:58:12;;;;;;;;;;;;;;;3.74;100.00;98453.91;6275869;22;19907;-84
2023/11/29 15:00:37;;;;;;;;;;;;;;;3.78;100.00;98449.41;6274550;22;19911;-82
2023/11/29 15:03:03;;;;;;;;;;;;;;;3.68;100.00;98455.91;6248731;22;19968;-84
2023/11/29 15:05:28;;;;;;;;;;;;;;;3.73;100.00;98452.19;6276199;22;19911;-85
2023/11/29 15:07:53;;;;;;;;;;;;;;;3.76;100.00;98452.06;6276003;22;20311;-85
2023/11/29 15:10:18;;;;;;;;;;;;;;;3.68;100.00;98453.28;6248991;22;19943;-84
2023/11/29 15:12:44;;;;;;;;;;;;;;;3.52;100.00;98458.19;6275994;22;19940;-84
2023/11/29 15:15:09;;;;;;;;;;;;;;;3.59;100.00;98457.06;6275958;22;19911;-84
2023/11/29 15:17:34;;;;;;;;;;;;;;;3.64;100.00;98453.38;6274659;22;19918;-83
2023/11/29 15:19:59;;;;;;;;;;;;;;;3.65;100.00;98454.22;6276261;22;19911;-83
2023/11/29 15:22:25;;;;;;;;;;;;;;;3.57;100.00;98453.66;6248801;22;19911;-85
2023/11/29 15:24:50;;;;;;;;;;;;;;;3.75;100.00;98459.97;6248703;22;19911;-84
2023/11/29 15:27:15;;;;;;;;;;;;;;;3.65;100.00;98456.84;6248542;22;19918;-84
2023/11/29 15:29:40;;;;;;;;;;;;;;;3.56;100.00;98454.56;6248741;22;19911;-85
2023/11/29 15:32:07;;;;;;;;;;;;;;;3.58;100.00;98456.22;6274225;22;19923;-84
2023/11/29 15:34:32;;;;;;;;;;;;;;;3.55;100.00;98452.84;6275892;22;19911;-85
2023/11/29 15:36:57;;;;;;;;;;;;;;;3.61;100.00;98452.66;6248707;22;19907;-87
2023/11/29 15:39:23;;;;;;;;;;;;;;;3.57;100.00;98456.28;6248765;22;19934;-83
2023/11/29 15:41:48;;;;;;;;;;;;;;;3.54;100.00;98451.13;6276007;22;20319;-83
2023/11/29 15:44:13;;;;;;;;;;;;;;;3.53;100.00;98445.06;6275739;22;20323;-83
2023/11/29 15:46:39;;;;;;;;;;;;;;;3.49;100.00;98434.75;6274211;22;20247;-84
2023/11/29 15:49:05;;;;;;;;;;;;;;;3.62;100.00;98438.63;6275624;22;19911;-83
2023/11/29 15:51:30;;;;;;;;;;;;;;;3.47;100.00;98426.09;6275621;22;19911;-86
2023/11/29 15:53:55;;;;;;;;;;;;;;;3.63;100.00;98433.31;6275754;22;19922;-85
2023/11/29 15:56:21;;;;;;;;;;;;;;;3.49;100.00;98426.88;6276284;22;20298;-83
2023/11/29 15:58:46;;;;;;;;;;;;;;;3.59;100.00;98417.78;6275602;22;19915;-85
2023/11/29 16:01:11;;;;;;;;;;;;;;;3.54;100.00;98424.94;6273889;22;20328;-83
2023/11/29 16:03:37;;;;;;;;;;;;;;;3.48;100.00;98428.66;6275525;22;19915;-83
2023/11/29 16:06:03;;;;;;;;;;;;;;;3.57;100.00;98436.16;6275593;22;19911;-82
2023/11/29 16:08:28;;;;;;;;;;;;;;;3.56;100.00;98437.09;6276120;22;19915;-83
2023/11/29 16:10:54;;;;;;;;;;;;;;;3.54;100.00;98436.31;6275696;22;20320;-84
2023/11/29 16:13:19;;;;;;;;;;;;;;;3.55;100.00;98439.75;6275534;22;19961;-84
2023/11/29 16:15:44;;;;;;;;;;;;;;;3.59;100.00;98439.59;6273902;22;19911;-83
2023/11/29 16:18:10;;;;;;;;;;;;;;;3.56;100.00;98436.25;6248277;22;19915;-83
2023/11/29 16:20:36;;;;;;;;;;;;;;;3.55;100.00;98431.91;6275682;22;19926;-84
2023/11/29 16:23:02;;;;;;;;;;;;;;;3.49;100.00;98429.50;6275412;22;19915;-85
2023/11/29 16:25:27;;;;;;;;;;;;;;;3.55;100.00;98429.28;6275817;22;20251;-84
2023/11/29 16:27:52;;;;;;;;;;;;;;;3.55;100.00;98431.91;6248331;22;19915;-84
2023/11/29 16:30:17;;;;;;;;;;;;;;;3.56;100.00;98428.38;6275516;22;20179;-84
2023/11/29 16:32:43;;;;;;;;;;;;;;;3.55;100.00;98429.28;6246919;22;19990;-84
2023/11/29 16:35:19;;;;;;;;;;;;;;;3.55;100.00;98432.75;6275893;22;19945;-84
2023/11/29 16:37:44;;;;;;;;;;;;;;;3.51;100.00;98430.28;6277226;22;19926;-84
2023/11/29 16:40:11;;;;;;;;;;;;;;;3.55;100.00;98424.03;6250327;22;19919;-84
2023/11/29 16:42:36;;;;;;;;;;;;;;;3.55;100.00;98422.28;6277739;22;20235;-84
2023/11/29 16:45:02;;;;;;;;;;;;;;;3.55;100.00;98424.88;6250654;22;19915;-84
2023/11/29 16:47:28;;;;;;;;;;;;;;;3.52;100.00;98425.00;6275623;22;19989;-87
2023/11/29 16:49:53;;;;;;;;;;;;;;;3.56;100.00;98413.50;6277338;22;19934;-83
2023/11/29 16:52:18;;;;;;;;;;;;;;;3.53;100.00;98416.25;6250577;22;19919;-84
2023/11/29 16:54:43;;;;;;;;;;;;;;;3.57;100.00;98414.34;6250198;22;19937;-85
2023/11/29 16:57:09;;;;;;;;;;;;;;;3.52;100.00;98414.53;6250043;22;20239;-85
2023/11/29 16:59:35;;;;;;;;;;;;;;;3.57;100.00;98420.44;6277444;22;20224;-85
2023/11/29 17:02:01;;;;;;;;;;;;;;;3.55;100.00;98417.03;6248464;22;19926;-84
2023/11/29 17:04:26;;;;;;;;;;;;;;;3.57;100.00;98422.22;6277163;22;19911;-85
2023/11/29 17:06:52;;;;;;;;;;;;;;;3.61;100.00;98410.72;6277225;22;19911;-83
2023/11/29 17:09:17;;;;;;;;;;;;;;;3.59;100.00;98408.16;6277164;22;20378;-88
2023/11/29 17:11:43;;;;;;;;;;;;;;;3.59;100.00;98410.78;6276290;22;19942;-83
2023/11/29 17:14:08;;;;;;;;;;;;;;;3.62;100.00;98409.81;6276896;22;19923;-88
2023/11/29 17:16:34;;;;;;;;;;;;;;;3.57;100.00;98409.13;6275506;22;20251;-85
2023/11/29 17:19:02;;;;;;;;;;;;;;;3.59;100.00;98409.91;6277281;22;19912;-88
2023/11/29 17:21:28;;;;;;;;;;;;;;;3.57;100.00;98409.97;6276795;22;20285;-88
2023/11/29 17:23:56;;;;;;;;;;;;;;;3.64;100.00;98403.59;6276888;22;19911;-84
2023/11/29 17:26:21;;;;;;;;;;;;;;;3.56;100.00;98404.81;6276837;22;19923;-84
2023/11/29 17:28:46;;;;;;;;;;;;;;;3.61;100.00;98402.88;6277360;22;20373;-86
2023/11/29 17:31:11;;;;;;;;;;;;;;;3.57;100.00;98396.03;6275455;22;19915;-85
2023/11/29 17:33:37;;;;;;;;;;;;;;;3.56;100.00;98400.41;6277238;22;19911;-85
2023/11/29 17:36:02;;;;;;;;;;;;;;;3.63;100.00;98408.91;6276849;22;20220;-85
2023/11/29 17:38:27;;;;;;;;;;;;;;;3.61;100.00;98411.56;6249336;22;19916;-85
2023/11/29 17:40:53;;;;;;;;;;;;;;;3.63;100.00;98416.75;6276705;22;19961;-84
2023/11/29 17:43:18;;;;;;;;;;;;;;;3.62;100.00;98412.41;6249722;22;20212;-85
2023/11/29 17:45:43;;;;;;;;;;;;;;;3.63;100.00;98414.97;6274937;22;20254;-84
2023/11/29 17:48:09;;;;;;;;;;;;;;;3.63;100.00;98403.66;6248923;22;19911;-87
2023/11/29 17:50:34;;;;;;;;;;;;;;;3.61;100.00;98413.34;6250035;22;19915;-84
2023/11/29 17:52:59;;;;;;;;;;;;;;;3.58;100.00;98408.22;6276753;22;19916;-84
2023/11/29 17:55:24;;;;;;;;;;;;;;;3.61;100.00;98410.72;6276535;22;19911;-83
2023/11/29 17:57:50;;;;;;;;;;;;;;;3.59;100.00;98407.28;6249724;22;19980;-84
2023/11/29 18:00:15;;;;;;;;;;;;;;;3.60;100.00;98404.63;6276452;22;19956;-84
2023/11/29 18:02:41;;;;;;;;;;;;;;;3.57;100.00;98404.72;6274846;22;19923;-83
2023/11/29 18:05:06;;;;;;;;;;;;;;;3.61;100.00;98395.84;6276519;22;19912;-84
2023/11/29 18:07:31;;;;;;;;;;;;;;;3.58;100.00;98395.97;6249280;22;19918;-83
2023/11/29 18:09:56;;;;;;;;;;;;;;;3.63;100.00;98401.88;6276668;22;19938;-84
2023/11/29 18:12:22;;;;;;;;;;;;;;;3.61;100.00;98402.88;6276247;22;19922;-84
2023/11/29 18:14:47;;;;;;;;;;;;;;;3.59;100.00;98396.81;6276692;22;19942;-84
2023/11/29 18:17:12;;;;;;;;;;;;;;;3.61;100.00;98405.50;6274979;22;19918;-83
2023/11/29 18:19:37;;;;;;;;;;;;;;;3.58;100.00;98395.13;6249430;22;19911;-84
2023/11/29 18:22:03;;;;;;;;;;;;;;;3.61;100.00;98401.09;6276509;22;19911;-84
2023/11/29 18:24:28;;;;;;;;;;;;;;;3.58;100.00;98400.38;6249575;22;19915;-83
2023/11/29 18:26:54;;;;;;;;;;;;;;;3.61;100.00;98397.63;6276932;22;19911;-87
2023/11/29 18:29:20;;;;;;;;;;;;;;;3.65;100.00;98391.34;6248950;22;20387;-83
2023/11/29 18:31:46;;;;;;;;;;;;;;;3.61;100.00;98392.41;6247505;22;20303;-84
2023/11/29 18:34:11;;;;;;;;;;;;;;;3.64;100.00;98395.75;6249669;22;19911;-84
2023/11/29 18:36:37;;;;;;;;;;;;;;;3.64;100.00;98394.91;6276248;22;19934;-83
2023/11/29 18:39:03;;;;;;;;;;;;;;;3.65;100.00;98386.13;6249282;22;19941;-82
2023/11/29 18:41:29;;;;;;;;;;;;;;;3.62;100.00;98383.59;6276007;22;19957;-83
2023/11/29 18:43:54;;;;;;;;;;;;;;;3.60;100.00;98377.56;6249601;22;19912;-83
2023/11/29 18:46:19;;;;;;;;;;;;;;;3.62;100.00;98384.47;6274779;22;19911;-82
2023/11/29 18:48:44;;;;;;;;;;;;;;;3.65;100.00;98373.00;6276101;22;20282;-83
2023/11/29 18:51:10;;;;;;;;;;;;;;;3.63;100.00;98364.38;6275639;22;19915;-83
2023/11/29 18:53:36;;;;;;;;;;;;;;;3.64;100.00;98361.69;6248856;22;20676;-83
2023/11/29 18:56:01;;;;;;;;;;;;;;;3.66;100.00;98366.88;6248988;22;19926;-83
2023/11/29 18:58:26;;;;;;;;;;;;;;;3.59;100.00;98361.00;6248905;22;20247;-83
2023/11/29 19:00:51;;;;;;;;;;;;;;;3.62;100.00;98373.13;6274208;22;20763;-82
2023/11/29 19:03:17;;;;;;;;;;;;;;;3.69;100.00;98368.53;6274689;22;19915;-83
2023/11/29 19:05:42;;;;;;;;;;;;;;;3.66;100.00;98372.13;6246721;22;19911;-82
2023/11/29 19:08:07;;;;;;;;;;;;;;;3.69;100.00;98371.16;6247813;22;19918;-83
2023/11/29 19:10:32;;;;;;;;;;;;;;;3.67;100.00;98376.44;6274598;22;20271;-82
2023/11/29 19:12:58;;;;;;;;;;;;;;;3.72;100.00;98379.75;6247771;22;19911;-83
2023/11/29 19:15:23;;;;;;;;;;;;;;;3.67;100.00;98379.06;6274338;22;19991;-82
2023/11/29 19:17:48;;;;;;;;;;;;;;;3.74;100.00;98379.69;6246112;22;19907;-83
2023/11/29 19:20:17;;;;;;;;;;;;;;;3.72;100.00;98382.38;6274695;22;19926;-82
2023/11/29 19:22:42;;;;;;;;;;;;;;;3.67;100.00;98372.97;6247663;22;19915;-82
2023/11/29 19:25:08;;;;;;;;;;;;;;;3.66;100.00;98373.88;6247126;22;19907;-83
2023/11/29 19:27:33;;;;;;;;;;;;;;;3.71;100.00;98366.72;6247451;22;19935;-82
2023/11/29 19:29:58;;;;;;;;;;;;;;;3.69;100.00;98366.75;6274613;22;19911;-82
2023/11/29 19:32:23;;;;;;;;;;;;;;;3.68;100.00;98365.03;6273073;22;20234;-83